createdAt,value
2023-04-11T00:00:14.064Z,10.80
2023-04-11T00:02:41.850Z,10.80
2023-04-11T00:05:09.188Z,10.80
2023-04-11T00:07:36.716Z,10.80
2023-04-11T00:10:05.039Z,10.80
2023-04-11T00:12:32.561Z,10.80
2023-04-11T00:15:00.105Z,10.80
2023-04-11T00:17:27.673Z,10.80
2023-04-11T00:19:55.212Z,10.80
2023-04-11T00:22:22.748Z,10.80
2023-04-11T00:24:50.358Z,10.80
2023-04-11T00:27:19.109Z,10.80
2023-04-11T00:29:45.426Z,10.90
2023-04-11T00:32:13.270Z,10.80
2023-04-11T00:34:40.813Z,11.00
2023-04-11T00:37:08.347Z,11.10
2023-04-11T00:39:35.913Z,11.00
2023-04-11T00:42:06.169Z,11.00
2023-04-11T00:44:33.695Z,11.10
2023-04-11T00:47:01.321Z,11.00
2023-04-11T00:49:28.823Z,10.90
2023-04-11T00:51:56.356Z,10.80
2023-04-11T00:54:23.909Z,10.80
2023-04-11T00:56:51.481Z,10.70
2023-04-11T00:59:18.978Z,10.70
2023-04-11T01:01:46.624Z,10.70
2023-04-11T01:04:14.171Z,10.70
2023-04-11T01:06:41.650Z,10.70
2023-04-11T01:09:09.216Z,10.70
2023-04-11T01:11:36.755Z,10.70
2023-04-11T01:14:04.267Z,10.70
2023-04-11T01:16:31.912Z,10.70
2023-04-11T01:18:59.351Z,10.90
2023-04-11T01:21:26.892Z,11.20
2023-04-11T01:23:54.725Z,11.20
2023-04-11T01:26:22.249Z,11.10
2023-04-11T01:28:49.778Z,11.00
2023-04-11T01:31:17.416Z,10.90
2023-04-11T01:33:44.876Z,10.90
2023-04-11T01:36:12.485Z,10.80
2023-04-11T01:38:39.959Z,10.80
2023-04-11T01:41:07.503Z,10.80
2023-04-11T01:43:35.049Z,10.80
2023-04-11T01:46:02.654Z,11.00
2023-04-11T01:48:30.292Z,11.00
2023-04-11T01:50:57.739Z,10.90
2023-04-11T01:53:25.357Z,10.80
2023-04-11T01:55:52.875Z,10.70
2023-04-11T01:58:20.401Z,10.60
2023-04-11T02:00:48.032Z,10.60
2023-04-11T02:03:15.730Z,10.50
2023-04-11T02:05:43.103Z,10.50
2023-04-11T02:08:10.712Z,10.60
2023-04-11T02:10:38.257Z,10.80
2023-04-11T02:13:05.760Z,10.70
2023-04-11T02:15:33.353Z,10.60
2023-04-11T02:18:00.927Z,10.70
2023-04-11T02:20:28.395Z,10.80
2023-04-11T02:22:55.970Z,10.70
2023-04-11T02:25:23.497Z,10.60
2023-04-11T02:27:51.022Z,10.40
2023-04-11T02:30:18.650Z,10.30
2023-04-11T02:32:46.249Z,10.20
2023-04-11T02:35:13.737Z,10.10
2023-04-11T02:37:41.288Z,10.10
2023-04-11T02:40:08.871Z,10.00
2023-04-11T02:42:36.417Z,10.20
2023-04-11T02:45:04.016Z,10.40
2023-04-11T02:47:31.559Z,10.30
2023-04-11T02:49:59.032Z,10.10
2023-04-11T02:52:26.609Z,10.00
2023-04-11T02:54:54.163Z,10.10
2023-04-11T02:57:21.720Z,10.30
2023-04-11T02:59:49.257Z,10.10
2023-04-11T03:02:16.885Z,10.00
2023-04-11T03:04:44.323Z,9.80
2023-04-11T03:07:11.871Z,9.70
2023-04-11T03:09:39.405Z,9.50
2023-04-11T03:12:06.968Z,9.40
2023-04-11T03:14:34.506Z,9.30
2023-04-11T03:17:02.068Z,9.30
2023-04-11T03:19:29.602Z,9.20
2023-04-11T03:21:57.209Z,9.10
2023-04-11T03:24:24.756Z,9.00
2023-04-11T03:26:52.271Z,9.00
2023-04-11T03:29:19.815Z,8.90
2023-04-11T03:31:47.371Z,8.90
2023-04-11T03:34:14.885Z,9.10
2023-04-11T03:36:42.508Z,9.00
2023-04-11T03:39:10.065Z,8.90
2023-04-11T03:41:37.579Z,8.90
2023-04-11T03:44:05.152Z,8.80
2023-04-11T03:46:32.734Z,8.70
2023-04-11T03:49:00.220Z,8.70
2023-04-11T03:51:27.756Z,8.70
2023-04-11T03:53:55.312Z,8.70
2023-04-11T03:56:22.854Z,8.70
2023-04-11T03:58:50.388Z,8.70
2023-04-11T04:01:17.939Z,8.70
2023-04-11T04:03:45.797Z,8.70
2023-04-11T04:06:13.745Z,8.70
2023-04-11T04:08:41.281Z,8.80
2023-04-11T04:11:08.822Z,8.80
2023-04-11T04:13:36.394Z,8.70
2023-04-11T04:16:04.139Z,8.70
2023-04-11T04:18:31.464Z,8.70
2023-04-11T04:20:59.059Z,8.60
2023-04-11T04:23:26.587Z,8.60
2023-04-11T04:25:54.118Z,8.60
2023-04-11T04:28:21.685Z,8.50
2023-04-11T04:30:49.208Z,8.50
2023-04-11T04:33:16.752Z,8.40
2023-04-11T04:35:44.394Z,8.40
2023-04-11T04:38:11.887Z,8.40
2023-04-11T04:40:39.425Z,8.30
2023-04-11T04:43:07.029Z,8.40
2023-04-11T04:45:34.566Z,8.50
2023-04-11T04:48:02.126Z,8.60
2023-04-11T04:50:29.652Z,8.50
2023-04-11T04:52:57.177Z,8.50
2023-04-11T04:55:24.714Z,8.50
2023-04-11T04:57:52.289Z,8.50
2023-04-11T05:00:21.831Z,8.50
2023-04-11T05:02:47.483Z,8.50
2023-04-11T05:05:14.942Z,8.50
2023-04-11T05:07:42.481Z,8.70
2023-04-11T05:10:10.010Z,8.80
2023-04-11T05:12:37.585Z,9.00
2023-04-11T05:15:05.118Z,9.00
2023-04-11T05:17:32.685Z,8.90
2023-04-11T05:20:00.507Z,8.80
2023-04-11T05:22:28.097Z,8.80
2023-04-11T05:24:55.551Z,8.70
2023-04-11T05:27:23.225Z,8.70
2023-04-11T05:29:50.749Z,8.70
2023-04-11T05:32:18.266Z,8.70
2023-04-11T05:34:58.189Z,8.70
2023-04-11T05:37:22.442Z,8.70
2023-04-11T05:39:49.978Z,8.70
2023-04-11T05:42:17.553Z,8.70
2023-04-11T05:44:45.078Z,8.80
2023-04-11T05:47:12.622Z,8.80
2023-04-11T05:49:40.190Z,8.80
2023-04-11T05:52:07.713Z,8.80
2023-04-11T05:54:35.236Z,8.80
2023-04-11T05:57:02.829Z,8.90
2023-04-11T05:59:30.403Z,8.90
2023-04-11T06:01:57.927Z,9.10
2023-04-11T06:04:25.640Z,9.10
2023-04-11T06:06:53.021Z,9.10
2023-04-11T06:09:20.627Z,9.10
2023-04-11T06:11:48.114Z,9.00
2023-04-11T06:14:15.633Z,9.00
2023-04-11T06:16:43.164Z,9.00
2023-04-11T06:19:10.736Z,9.00
2023-04-11T06:21:38.261Z,9.00
2023-04-11T06:24:05.798Z,9.00
2023-04-11T06:26:33.383Z,9.00
2023-04-11T06:29:00.938Z,9.10
2023-04-11T06:31:28.494Z,9.10
2023-04-11T06:33:56.402Z,9.10
2023-04-11T06:36:23.787Z,9.10
2023-04-11T06:38:51.322Z,9.20
2023-04-11T06:41:18.890Z,9.20
2023-04-11T06:43:46.411Z,9.20
2023-04-11T06:46:13.976Z,9.20
2023-04-11T06:48:41.535Z,9.30
2023-04-11T06:51:09.088Z,9.30
2023-04-11T06:53:36.603Z,9.30
2023-04-11T06:56:04.167Z,9.50
2023-04-11T06:58:31.741Z,9.50
2023-04-11T07:00:59.280Z,9.50
2023-04-11T07:03:26.944Z,9.50
2023-04-11T07:05:54.425Z,9.50
2023-04-11T07:08:21.972Z,9.50
2023-04-11T07:10:49.488Z,9.50
2023-04-11T07:13:17.083Z,9.50
2023-04-11T07:15:44.654Z,9.50
2023-04-11T07:18:12.189Z,9.40
2023-04-11T07:20:39.719Z,9.40
2023-04-11T07:23:07.496Z,9.30
2023-04-11T07:25:35.257Z,9.30
2023-04-11T07:28:03.395Z,9.40
2023-04-11T07:30:35.639Z,9.40
2023-04-11T07:33:04.004Z,9.50
2023-04-11T07:35:34.552Z,9.50
2023-04-11T07:38:02.481Z,9.60
2023-04-11T07:40:30.242Z,9.60
2023-04-11T07:43:00.670Z,9.70
2023-04-11T07:45:28.454Z,9.80
2023-04-11T07:47:57.492Z,9.80
2023-04-11T07:50:24.077Z,9.90
2023-04-11T07:52:51.934Z,10.20
2023-04-11T07:55:22.686Z,10.50
2023-04-11T07:57:53.307Z,10.80
2023-04-11T08:00:24.136Z,11.00
2023-04-11T08:02:56.956Z,11.20
2023-04-11T08:05:22.782Z,11.10
2023-04-11T08:07:50.603Z,10.90
2023-04-11T08:10:18.366Z,11.10
2023-04-11T08:12:46.323Z,11.10
2023-04-11T08:15:14.095Z,11.20
2023-04-11T08:17:44.212Z,11.10
2023-04-11T08:20:12.217Z,11.00
2023-04-11T08:22:40.051Z,11.20
2023-04-11T08:25:07.914Z,11.40
2023-04-11T08:27:40.347Z,11.40
2023-04-11T08:30:09.073Z,11.30
2023-04-11T08:32:36.865Z,11.20
2023-04-11T08:35:04.705Z,11.10
2023-04-11T08:37:32.578Z,11.10
2023-04-11T08:40:00.379Z,11.10
2023-04-11T08:42:28.233Z,11.20
2023-04-11T08:44:56.201Z,11.30
2023-04-11T08:47:26.652Z,11.30
2023-04-11T08:49:54.503Z,11.40
2023-04-11T08:52:22.296Z,11.40
2023-04-11T08:54:50.036Z,11.60
2023-04-11T08:57:26.500Z,11.70
2023-04-11T08:59:56.929Z,11.70
2023-04-11T09:02:24.772Z,11.70
2023-04-11T09:04:55.400Z,11.70
2023-04-11T09:07:25.664Z,11.80
2023-04-11T09:09:53.426Z,11.90
2023-04-11T09:12:21.379Z,12.00
2023-04-11T09:14:51.304Z,12.00
2023-04-11T09:17:22.031Z,12.00
2023-04-11T09:19:52.723Z,11.90
2023-04-11T09:22:23.052Z,11.80
2023-04-11T09:24:53.678Z,11.70
2023-04-11T09:27:24.204Z,11.70
2023-04-11T09:29:51.968Z,11.70
2023-04-11T09:32:37.285Z,11.70
2023-04-11T09:35:19.748Z,11.70
2023-04-11T09:37:50.594Z,11.80
2023-04-11T09:40:21.008Z,11.90
2023-04-11T09:42:48.773Z,12.10
2023-04-11T09:45:19.712Z,12.20
2023-04-11T09:47:50.264Z,12.20
2023-04-11T09:50:18.124Z,12.20
2023-04-11T09:52:46.119Z,12.20
2023-04-11T09:55:13.836Z,12.20
2023-04-11T09:57:41.569Z,12.20
2023-04-11T10:00:12.304Z,12.20
2023-04-11T10:02:40.306Z,12.20
2023-04-11T10:05:08.212Z,12.20
2023-04-11T10:07:38.363Z,12.20
2023-04-11T10:10:08.892Z,12.30
2023-04-11T10:12:38.493Z,12.30
2023-04-11T10:15:09.526Z,12.50
2023-04-11T10:17:37.392Z,12.60
2023-04-11T10:20:32.688Z,12.80
2023-04-11T10:23:00.513Z,12.90
2023-04-11T10:25:30.182Z,12.90
2023-04-11T10:27:58.064Z,13.00
2023-04-11T10:30:37.604Z,13.10
2023-04-11T10:33:14.792Z,13.30
2023-04-11T10:36:05.625Z,13.60
2023-04-11T10:38:45.483Z,13.70
2023-04-11T10:41:27.717Z,14.00
2023-04-11T10:44:16.016Z,14.00
2023-04-11T10:46:53.001Z,13.90
2023-04-11T10:49:41.550Z,14.10
2023-04-11T10:52:24.281Z,14.30
2023-04-11T10:54:52.204Z,14.10
2023-04-11T10:57:19.917Z,14.00
2023-04-11T10:59:50.620Z,13.90
2023-04-11T11:02:18.856Z,13.90
2023-04-11T11:04:53.967Z,14.00
2023-04-11T11:07:26.409Z,14.00
2023-04-11T11:09:54.159Z,14.30
2023-04-11T11:12:21.944Z,14.30
2023-04-11T11:14:52.456Z,14.40
2023-04-11T11:17:20.268Z,14.40
2023-04-11T11:19:48.241Z,14.50
2023-04-11T11:22:18.625Z,14.60
2023-04-11T11:24:46.497Z,14.70
2023-04-11T11:27:20.142Z,14.70
2023-04-11T11:29:47.964Z,14.70
2023-04-11T11:32:30.242Z,14.70
2023-04-11T11:35:00.388Z,14.60
2023-04-11T11:37:28.143Z,14.40
2023-04-11T11:39:56.020Z,14.30
2023-04-11T11:42:28.078Z,14.10
2023-04-11T11:44:54.733Z,14.10
2023-04-11T11:47:22.627Z,14.00
2023-04-11T11:49:55.878Z,14.00
2023-04-11T11:52:36.023Z,13.90
2023-04-11T11:55:08.909Z,13.90
2023-04-11T11:57:34.733Z,14.10
2023-04-11T12:00:02.506Z,14.00
2023-04-11T12:02:30.563Z,13.90
2023-04-11T12:05:00.913Z,14.00
2023-04-11T12:07:33.076Z,14.00
2023-04-11T12:10:02.018Z,14.30
2023-04-11T12:12:35.526Z,14.60
2023-04-11T12:15:12.020Z,14.50
2023-04-11T12:17:39.510Z,14.60
2023-04-11T12:20:09.855Z,14.90
2023-04-11T12:22:37.434Z,14.80
2023-04-11T12:25:04.967Z,14.80
2023-04-11T12:27:32.513Z,14.70
2023-04-11T12:30:00.220Z,14.80
2023-04-11T12:32:27.782Z,14.70
2023-04-11T12:34:55.295Z,14.50
2023-04-11T12:37:23.143Z,14.50
2023-04-11T12:39:50.680Z,14.50
2023-04-11T12:42:21.015Z,14.50
2023-04-11T12:44:45.795Z,14.60
2023-04-11T12:47:13.336Z,14.60
2023-04-11T12:49:40.876Z,14.60
2023-04-11T12:52:08.466Z,14.60
2023-04-11T12:54:35.988Z,14.60
2023-04-11T12:57:03.543Z,14.70
2023-04-11T12:59:32.423Z,14.60
2023-04-11T13:01:58.732Z,14.60
2023-04-11T13:04:26.412Z,14.50
2023-04-11T13:06:53.798Z,14.50
2023-04-11T13:09:21.334Z,14.50
2023-04-11T13:11:48.855Z,14.40
2023-04-11T13:14:16.438Z,14.40
2023-04-11T13:16:44.040Z,14.40
2023-04-11T13:19:11.521Z,14.50
2023-04-11T13:21:39.107Z,14.50
2023-04-11T13:24:06.629Z,14.60
2023-04-11T13:26:37.069Z,14.70
2023-04-11T13:29:04.653Z,14.70
2023-04-11T13:31:32.206Z,14.70
2023-04-11T13:33:59.710Z,14.80
2023-04-11T13:36:27.355Z,14.80
2023-04-11T13:38:54.996Z,14.90
2023-04-11T13:41:22.364Z,14.90
2023-04-11T13:43:49.990Z,15.00
2023-04-11T13:46:17.576Z,15.00
2023-04-11T13:48:45.036Z,15.00
2023-04-11T13:51:12.723Z,15.20
2023-04-11T13:53:40.269Z,15.30
2023-04-11T13:56:07.796Z,15.40
2023-04-11T13:58:35.410Z,15.40
2023-04-11T14:01:02.953Z,15.40
2023-04-11T14:03:30.514Z,15.30
2023-04-11T14:05:58.023Z,15.20
2023-04-11T14:08:25.565Z,15.20
2023-04-11T14:10:53.081Z,15.20
2023-04-11T14:13:20.675Z,15.20
2023-04-11T14:15:52.077Z,15.20
2023-04-11T14:18:15.726Z,15.20
2023-04-11T14:20:43.288Z,15.10
2023-04-11T14:23:10.812Z,15.10
2023-04-11T14:25:38.394Z,15.00
2023-04-11T14:28:05.967Z,15.10
2023-04-11T14:30:33.659Z,15.00
2023-04-11T14:33:01.087Z,14.90
2023-04-11T14:35:28.602Z,14.90
2023-04-11T14:37:56.151Z,14.80
2023-04-11T14:40:23.658Z,14.90
2023-04-11T14:42:51.207Z,14.80
2023-04-11T14:45:18.745Z,14.90
2023-04-11T14:47:46.297Z,14.90
2023-04-11T14:50:13.841Z,15.00
2023-04-11T14:52:41.371Z,15.10
2023-04-11T14:55:08.980Z,15.20
2023-04-11T14:57:42.170Z,15.30
2023-04-11T15:00:09.815Z,15.30
2023-04-11T15:02:37.441Z,15.30
2023-04-11T15:05:04.959Z,15.40
2023-04-11T15:07:32.476Z,15.70
2023-04-11T15:10:00.009Z,15.60
2023-04-11T15:12:27.590Z,15.60
2023-04-11T15:14:55.187Z,15.60
2023-04-11T15:17:22.755Z,15.50
2023-04-11T15:19:50.278Z,15.50
2023-04-11T15:22:17.802Z,15.70
2023-04-11T15:24:45.340Z,15.70
2023-04-11T15:27:12.933Z,15.60
2023-04-11T15:29:40.468Z,15.60
2023-04-11T15:32:08.001Z,15.50
2023-04-11T15:34:35.566Z,15.50
2023-04-11T15:37:03.089Z,15.40
2023-04-11T15:39:30.624Z,15.40
2023-04-11T15:41:58.240Z,15.40
2023-04-11T15:44:25.781Z,15.50
2023-04-11T15:46:53.351Z,15.40
2023-04-11T15:49:20.907Z,15.20
2023-04-11T15:51:48.421Z,15.30
2023-04-11T15:54:15.952Z,15.20
2023-04-11T15:56:43.790Z,15.10
2023-04-11T15:59:11.327Z,14.90
2023-04-11T16:01:38.926Z,14.80
2023-04-11T16:04:06.475Z,14.90
2023-04-11T16:06:33.972Z,15.00
2023-04-11T16:09:01.497Z,14.90
2023-04-11T16:11:29.108Z,14.70
2023-04-11T16:13:56.783Z,14.60
2023-04-11T16:16:24.206Z,14.40
2023-04-11T16:18:51.754Z,14.30
2023-04-11T16:21:19.287Z,14.20
2023-04-11T16:23:46.823Z,14.10
2023-04-11T16:26:14.387Z,14.10
2023-04-11T16:28:41.913Z,14.00
2023-04-11T16:31:09.449Z,14.20
2023-04-11T16:33:37.072Z,14.10
2023-04-11T16:36:04.645Z,14.00
2023-04-11T16:38:32.140Z,13.90
2023-04-11T16:41:02.544Z,14.00
2023-04-11T16:43:30.077Z,13.90
2023-04-11T16:45:57.608Z,13.80
2023-04-11T16:48:25.161Z,13.70
2023-04-11T16:50:52.699Z,13.90
2023-04-11T16:53:20.208Z,13.80
2023-04-11T16:55:47.851Z,13.70
2023-04-11T16:58:15.364Z,13.60
2023-04-11T17:00:42.900Z,13.80
2023-04-11T17:03:10.659Z,13.70
2023-04-11T17:05:38.034Z,13.60
2023-04-11T17:08:05.539Z,13.60
2023-04-11T17:10:33.122Z,13.50
2023-04-11T17:13:00.636Z,13.50
2023-04-11T17:15:28.171Z,13.40
2023-04-11T17:17:55.766Z,13.40
2023-04-11T17:20:23.304Z,13.30
2023-04-11T17:22:50.814Z,13.20
2023-04-11T17:25:18.371Z,13.10
2023-04-11T17:27:45.907Z,13.00
2023-04-11T17:30:13.462Z,13.00
2023-04-11T17:32:41.102Z,12.90
2023-04-11T17:35:08.635Z,12.90
2023-04-11T17:37:36.185Z,12.90
2023-04-11T17:40:03.718Z,12.80
2023-04-11T17:42:31.249Z,12.80
2023-04-11T17:45:03.755Z,12.80
2023-04-11T17:47:26.404Z,12.90
2023-04-11T17:49:53.908Z,12.90
2023-04-11T17:52:21.430Z,12.80
2023-04-11T17:54:48.974Z,12.70
2023-04-11T17:57:18.165Z,12.60
2023-04-11T17:59:44.065Z,12.60
2023-04-11T18:02:11.703Z,12.50
2023-04-11T18:04:39.296Z,12.50
2023-04-11T18:07:06.730Z,12.50
2023-04-11T18:09:34.338Z,12.60
2023-04-11T18:12:01.882Z,12.60
2023-04-11T18:14:29.410Z,12.50
2023-04-11T18:16:56.981Z,12.50
2023-04-11T18:19:24.521Z,12.40
2023-04-11T18:21:52.057Z,12.30
2023-04-11T18:24:19.630Z,12.30
2023-04-11T18:26:47.177Z,12.30
2023-04-11T18:29:14.722Z,12.20
2023-04-11T18:31:42.296Z,12.20
2023-04-11T18:34:10.034Z,12.20
2023-04-11T18:36:37.339Z,12.40
2023-04-11T18:39:04.911Z,12.40
2023-04-11T18:41:32.435Z,12.30
2023-04-11T18:44:01.287Z,12.30
2023-04-11T18:46:27.548Z,12.20
2023-04-11T18:48:55.035Z,12.20
2023-04-11T18:51:22.571Z,12.10
2023-04-11T18:53:50.150Z,12.10
2023-04-11T18:56:17.668Z,12.00
2023-04-11T18:58:46.740Z,12.00
2023-04-11T19:01:16.153Z,11.90
2023-04-11T19:03:40.983Z,11.90
2023-04-11T19:06:07.861Z,12.10
2023-04-11T19:08:35.450Z,12.10
2023-04-11T19:11:02.998Z,12.20
2023-04-11T19:13:30.533Z,12.20
2023-04-11T19:15:58.122Z,12.30
2023-04-11T19:18:25.619Z,12.20
2023-04-11T19:20:53.171Z,12.10
2023-04-11T19:23:20.776Z,12.00
2023-04-11T19:25:48.342Z,11.90
2023-04-11T19:28:15.844Z,11.80
2023-04-11T19:30:43.418Z,11.80
2023-04-11T19:33:10.983Z,11.70
2023-04-11T19:35:38.526Z,11.70
2023-04-11T19:38:06.096Z,11.70
2023-04-11T19:40:33.620Z,11.70
2023-04-11T19:43:01.164Z,11.80
2023-04-11T19:45:29.943Z,11.90
2023-04-11T19:47:56.270Z,12.00
2023-04-11T19:50:23.795Z,12.20
2023-04-11T19:52:51.352Z,12.10
2023-04-11T19:55:18.887Z,12.00
2023-04-11T19:57:46.430Z,11.80
2023-04-11T20:00:14.508Z,11.70
2023-04-11T20:02:41.690Z,11.70
2023-04-11T20:05:09.152Z,11.80
2023-04-11T20:07:36.730Z,12.00
2023-04-11T20:10:04.266Z,11.90
2023-04-11T20:12:31.790Z,11.80
2023-04-11T20:14:59.362Z,11.70
2023-04-11T20:17:26.939Z,11.60
2023-04-11T20:19:54.429Z,11.50
2023-04-11T20:22:21.985Z,11.50
2023-04-11T20:24:49.529Z,11.50
2023-04-11T20:27:17.045Z,11.40
2023-04-11T20:29:44.650Z,11.40
2023-04-11T20:32:12.183Z,11.40
2023-04-11T20:34:39.715Z,11.30
2023-04-11T20:37:07.333Z,11.30
2023-04-11T20:39:34.867Z,11.30
2023-04-11T20:42:02.400Z,11.30
2023-04-11T20:44:29.986Z,11.30
2023-04-11T20:46:57.512Z,11.30
2023-04-11T20:49:28.057Z,11.30
2023-04-11T20:51:55.669Z,11.30
2023-04-11T20:54:23.205Z,11.50
2023-04-11T20:56:50.728Z,11.40
2023-04-11T20:59:18.312Z,11.40
2023-04-11T21:01:46.006Z,11.30
2023-04-11T21:04:13.526Z,11.20
2023-04-11T21:06:40.963Z,11.20
2023-04-11T21:09:08.501Z,11.10
2023-04-11T21:11:36.043Z,11.10
2023-04-11T21:14:03.739Z,11.10
2023-04-11T21:16:31.261Z,11.30
2023-04-11T21:18:58.798Z,11.30
2023-04-11T21:21:26.379Z,11.50
2023-04-11T21:23:53.924Z,11.40
2023-04-11T21:26:21.453Z,11.40
2023-04-11T21:28:48.988Z,11.30
2023-04-11T21:31:16.546Z,11.20
2023-04-11T21:33:44.076Z,11.20
2023-04-11T21:36:11.706Z,11.30
2023-04-11T21:38:39.213Z,11.60
2023-04-11T21:41:06.740Z,11.50
2023-04-11T21:43:34.286Z,11.30
2023-04-11T21:46:01.831Z,11.50
2023-04-11T21:48:29.351Z,11.60
2023-04-11T21:50:56.900Z,11.80
2023-04-11T21:53:24.460Z,11.60
2023-04-11T21:55:51.978Z,11.40
2023-04-11T21:58:29.044Z,11.30
2023-04-11T22:00:47.046Z,11.10
2023-04-11T22:03:14.712Z,11.00
2023-04-11T22:05:42.196Z,11.00
2023-04-11T22:08:09.709Z,11.10
2023-04-11T22:10:46.586Z,11.00
2023-04-11T22:13:04.778Z,10.90
2023-04-11T22:15:32.305Z,10.80
2023-04-11T22:17:59.837Z,10.70
2023-04-11T22:20:27.383Z,10.60
2023-04-11T22:22:54.939Z,10.70
2023-04-11T22:25:22.767Z,10.60
2023-04-11T22:27:50.007Z,10.50
2023-04-11T22:30:17.557Z,10.40
2023-04-11T22:32:45.144Z,10.30
2023-04-11T22:35:12.721Z,10.20
2023-04-11T22:37:40.248Z,10.10
2023-04-11T22:40:08.005Z,10.00
2023-04-11T22:42:35.580Z,9.90
2023-04-11T22:45:03.109Z,9.90
2023-04-11T22:47:30.672Z,9.80
2023-04-11T22:49:58.214Z,9.80
2023-04-11T22:52:25.758Z,9.70
2023-04-11T22:54:53.275Z,9.70
2023-04-11T22:57:20.841Z,9.90
2023-04-11T22:59:48.377Z,9.90
2023-04-11T23:02:15.983Z,9.80
2023-04-11T23:04:43.543Z,9.70
2023-04-11T23:07:11.041Z,9.70
2023-04-11T23:09:38.567Z,9.80
2023-04-11T23:12:06.189Z,9.80
2023-04-11T23:14:33.728Z,10.00
2023-04-11T23:17:01.329Z,9.90
2023-04-11T23:19:28.810Z,9.80
2023-04-11T23:21:56.355Z,9.60
2023-04-11T23:24:23.881Z,9.60
2023-04-11T23:26:51.442Z,9.50
2023-04-11T23:29:18.969Z,9.40
2023-04-11T23:31:46.526Z,9.30
2023-04-11T23:34:14.097Z,9.20
2023-04-11T23:36:41.644Z,9.40
2023-04-11T23:39:09.156Z,9.40
2023-04-11T23:41:36.778Z,9.30
2023-04-11T23:44:04.331Z,9.20
2023-04-11T23:46:31.870Z,9.20
2023-04-11T23:48:59.462Z,9.10
2023-04-11T23:51:27.030Z,9.30
2023-04-11T23:53:54.563Z,9.30
2023-04-11T23:56:22.857Z,9.20
2023-04-11T23:58:50.384Z,9.20
